Terminal Aerodrome Forecast
Issued by NWS Melbourne, FL

Home | Current Version | Previous Version | Text Only | Print | Product List | Glossary On
Versions: 1 2 3 4 5 6 7 8 9 10 11 12 13 14 15 16 17 18
000
FTUS42 KMLB 231941 AAB
TAFMLB
TAF AMD
KMLB 231941Z 2320/2418 13015KT P6SM VCTS SCT030CB BKN050
      TEMPO 2320/2321 VRB22G33KT 1SM +TSRA BKN025CB
     FM240000 18006KT P6SM VCSH SCT025 BKN035 OVC060
      TEMPO 2400/2403 3SM SHRA BKN020
     FM241000 23005KT P6SM BKN012
     FM241400 25008KT P6SM BKN025=

USA.gov is the U.S. government's official web portal to all federal, state and local government web resources and services.